Time;durP1;ratioP1;P1;durP2;ratioP2;P2;SDS_P1;SDS_P2;PMS_P1;PMS_P2;Temp;Humidity;BMP_temperature;BMP_pressure;BME280_temperature;BME280_humidity;BME280_pressure;Samples;Min_cycle;Max_cycle;Signal;HPM_P1;HPM_P2
2021/12/07 00:01:39;;;;;;;3.25;2.80;;;;;;;20.27;44.01;96321.50;10486982;28;20078;-55
2021/12/07 00:06:59;;;;;;;4.22;2.95;;;;;;;20.25;43.82;96307.53;10469315;28;20488;-55
2021/12/07 00:12:18;;;;;;;3.30;3.00;;;;;;;20.23;43.83;96306.28;10481217;28;20493;-54
2021/12/07 00:17:38;;;;;;;2.88;2.60;;;;;;;20.21;43.74;96309.34;10478597;28;20504;-55
2021/12/07 00:23:00;;;;;;;2.92;2.50;;;;;;;20.19;43.70;96300.78;10482295;28;20056;-55
2021/12/07 00:28:22;;;;;;;3.13;2.65;;;;;;;20.16;43.70;96296.03;10480422;28;20720;-54
2021/12/07 00:34:44;;;;;;;3.33;2.65;;;;;;;20.15;43.81;96302.59;10471004;28;20052;-53
2021/12/07 00:39:24;;;;;;;4.05;2.80;;;;;;;20.13;43.83;96296.72;10467210;28;20061;-55
2021/12/07 00:44:44;;;;;;;3.85;2.70;;;;;;;20.12;43.68;96303.25;10465388;28;20644;-55
2021/12/07 00:50:05;;;;;;;3.85;2.80;;;;;;;20.10;43.90;96292.00;10465076;28;20056;-56
2021/12/07 00:55:28;;;;;;;3.00;2.63;;;;;;;20.07;43.73;96288.06;10470645;28;20055;-55
2021/12/07 01:00:55;;;;;;;3.13;2.72;;;;;;;20.06;43.91;96293.81;10466694;28;20056;-55
2021/12/07 01:06:27;;;;;;;2.75;2.55;;;;;;;20.05;43.72;96281.41;10467347;28;20045;-55
2021/12/07 01:28:45;;;;;;;2.63;2.20;;;;;;;19.97;43.83;96277.69;10465435;28;19920;-55
2021/12/07 02:02:27;;;;;;;2.97;2.53;;;;;;;19.87;43.62;96227.56;10464479;28;20411;-55
2021/12/07 02:07:47;;;;;;;3.13;2.80;;;;;;;19.85;43.67;96216.31;10483105;28;20040;-55
2021/12/07 02:13:21;;;;;;;3.20;2.28;;;;;;;19.83;43.64;96213.16;10466215;28;20052;-55
2021/12/07 02:18:41;;;;;;;4.05;2.65;;;;;;;19.83;43.63;96220.50;10482438;28;20075;-55
2021/12/07 02:24:00;;;;;;;2.92;2.65;;;;;;;19.82;43.64;96217.00;10499235;28;20076;-55
2021/12/07 02:29:21;;;;;;;3.03;2.53;;;;;;;19.80;43.65;96215.75;10493479;28;20053;-54
2021/12/07 02:34:52;;;;;;;2.63;2.42;;;;;;;19.78;43.53;96210.72;10480445;28;20630;-55
2021/12/07 02:40:13;;;;;;;3.00;2.70;;;;;;;19.75;43.43;96222.97;10472504;28;20052;-55
2021/12/07 02:45:35;;;;;;;3.72;2.67;;;;;;;19.74;43.41;96213.31;10466677;28;20059;-54
2021/12/07 02:50:56;;;;;;;3.13;2.67;;;;;;;19.73;43.49;96227.16;10456593;28;20049;-55
2021/12/07 02:56:19;;;;;;;2.95;2.65;;;;;;;19.72;43.42;96225.59;10453648;28;20053;-55
2021/12/07 03:01:45;;;;;;;3.13;2.75;;;;;;;19.69;43.45;96208.09;10470863;28;20060;-55
2021/12/07 03:29:23;;;;;;;3.07;2.50;;;;;;;19.62;43.28;96207.06;10470583;28;20575;-55
2021/12/07 03:34:43;;;;;;;2.85;2.55;;;;;;;19.60;43.44;96196.63;10485499;28;20102;-55
2021/12/07 03:40:04;;;;;;;3.13;2.38;;;;;;;19.58;43.24;96188.03;10483190;28;20032;-55
2021/12/07 03:45:25;;;;;;;2.70;2.50;;;;;;;19.57;43.19;96189.19;10473555;28;20465;-55
2021/12/07 03:50:45;;;;;;;2.97;2.67;;;;;;;19.55;43.20;96180.63;10465250;28;20064;-55
2021/12/07 03:56:06;;;;;;;4.00;2.55;;;;;;;19.53;43.23;96178.25;10465567;28;20041;-54
2021/12/07 04:01:28;;;;;;;2.95;2.65;;;;;;;19.52;43.28;96184.81;10465425;28;20407;-55
2021/12/07 04:06:50;;;;;;;2.65;2.45;;;;;;;19.51;43.33;96207.53;10482017;28;20040;-54
2021/12/07 04:12:10;;;;;;;2.60;2.40;;;;;;;19.49;43.40;96212.50;10474365;28;20040;-55
2021/12/07 04:17:30;;;;;;;2.80;2.60;;;;;;;19.48;43.44;96213.63;10483401;28;20055;-54
2021/12/07 04:22:50;;;;;;;2.85;2.47;;;;;;;19.47;43.34;96212.03;10469431;28;20052;-55
2021/12/07 04:28:10;;;;;;;2.70;2.50;;;;;;;19.47;43.33;96211.25;10482839;28;20044;-55
2021/12/07 04:33:30;;;;;;;2.80;2.40;;;;;;;19.47;43.43;96212.03;10471077;28;20045;-55
2021/12/07 04:38:49;;;;;;;3.20;2.80;;;;;;;19.47;43.31;96220.16;10473568;28;20045;-55
2021/12/07 04:44:09;;;;;;;3.00;2.70;;;;;;;19.47;43.48;96222.84;10490919;28;20091;-54
2021/12/07 04:49:54;;;;;;;2.92;2.63;;;;;;;19.51;43.37;96221.03;10464045;28;20053;-55
2021/12/07 05:00:49;;;;;;;2.70;2.50;;;;;;;19.53;43.30;96218.78;10469122;28;20109;-54
2021/12/07 05:06:11;;;;;;;3.53;2.33;;;;;;;19.55;43.32;96215.75;10481222;28;20041;-54
2021/12/07 05:39:58;;;;;;;3.10;2.80;;;;;;;19.70;43.04;96204.28;10479137;28;20037;-55
2021/12/07 05:45:22;;;;;;;3.58;2.55;;;;;;;19.74;43.13;96212.53;10464454;28;20037;-54
2021/12/07 05:50:42;;;;;;;2.80;2.60;;;;;;;19.80;43.27;96218.47;10466715;28;20045;-54
2021/12/07 05:56:03;;;;;;;4.93;2.47;;;;;;;19.82;43.26;96217.00;10461652;28;20041;-54
2021/12/07 06:01:22;;;;;;;3.30;2.60;;;;;;;19.87;43.31;96226.78;10497745;28;20040;-53
2021/12/07 06:06:42;;;;;;;3.25;2.70;;;;;;;19.90;43.28;96232.31;10472929;28;20476;-54
2021/12/07 06:12:02;;;;;;;3.63;2.65;;;;;;;19.93;43.15;96223.53;10482403;28;20056;-54
2021/12/07 06:17:22;;;;;;;3.08;2.50;;;;;;;19.97;43.12;96226.31;10464236;28;20049;-54
2021/12/07 06:22:42;;;;;;;3.47;2.58;;;;;;;20.00;43.05;96225.66;10476228;28;20685;-55
2021/12/07 06:28:01;;;;;;;3.08;2.78;;;;;;;20.03;43.08;96232.28;10471956;28;20068;-54
2021/12/07 06:33:23;;;;;;;2.95;2.60;;;;;;;20.03;43.08;96232.28;10474191;28;20107;-54
2021/12/07 06:38:44;;;;;;;3.25;2.80;;;;;;;20.06;42.94;96218.09;10467718;28;20098;-54
2021/12/07 06:44:04;;;;;;;3.00;2.70;;;;;;;20.08;42.89;96210.44;10478923;28;20079;-54
2021/12/07 06:49:24;;;;;;;3.05;2.75;;;;;;;20.08;42.90;96203.09;10481348;28;20075;-55
2021/12/07 06:54:44;;;;;;;3.22;2.70;;;;;;;20.08;42.78;96205.03;10469847;28;20040;-54
2021/12/07 07:00:09;;;;;;;3.30;2.90;;;;;;;20.08;42.64;96208.50;10480598;28;20469;-54
2021/12/07 07:05:30;;;;;;;3.00;2.70;;;;;;;20.09;42.67;96214.69;10475573;28;20036;-55
2021/12/07 07:10:50;;;;;;;2.88;2.58;;;;;;;20.09;42.64;96212.00;10469105;28;20060;-54
2021/12/07 07:16:09;;;;;;;2.92;2.60;;;;;;;20.10;42.51;96210.88;10459126;28;20494;-55
2021/12/07 07:21:29;;;;;;;3.08;2.80;;;;;;;20.08;42.59;96213.13;10459281;28;20049;-54
2021/12/07 07:26:48;;;;;;;3.10;2.80;;;;;;;20.10;42.58;96227.09;10463134;28;20089;-54
2021/12/07 07:32:08;;;;;;;2.90;2.70;;;;;;;20.09;42.40;96228.22;10490296;28;20045;-54
2021/12/07 07:37:27;;;;;;;3.15;2.90;;;;;;;20.09;42.50;96233.63;10470531;28;20543;-54
2021/12/07 07:42:47;;;;;;;2.90;2.63;;;;;;;20.09;42.46;96241.75;10479186;28;20041;-55
2021/12/07 07:48:24;;;;;;;3.20;2.90;;;;;;;20.09;42.44;96236.34;10463441;28;20519;-54
2021/12/07 07:53:45;;;;;;;3.30;3.00;;;;;;;20.08;42.33;96237.47;10468673;28;20045;-54
2021/12/07 07:59:05;;;;;;;3.58;2.85;;;;;;;20.08;42.40;96229.34;10484997;28;20523;-55
2021/12/07 08:04:25;;;;;;;2.92;2.70;;;;;;;20.07;42.43;96233.19;10487888;28;20052;-55
2021/12/07 08:09:44;;;;;;;3.30;2.95;;;;;;;20.07;42.46;96254.81;10510015;28;20432;-55
2021/12/07 08:15:05;;;;;;;3.03;2.72;;;;;;;20.06;42.41;96253.25;10490564;28;20047;-55
2021/12/07 08:20:25;;;;;;;3.20;2.90;;;;;;;20.06;42.43;96245.91;10464753;28;20041;-54
2021/12/07 08:25:47;;;;;;;2.88;2.67;;;;;;;20.06;42.26;96245.13;10479335;28;20448;-54
2021/12/07 08:31:06;;;;;;;2.97;2.78;;;;;;;20.05;42.38;96243.56;10449778;28;20194;-54
2021/12/07 08:36:27;;;;;;;3.65;2.83;;;;;;;20.03;42.27;96248.50;10460384;28;20053;-54
2021/12/07 08:41:47;;;;;;;2.65;2.45;;;;;;;20.03;42.20;96245.81;10488739;28;20056;-54
2021/12/07 08:47:07;;;;;;;2.97;2.70;;;;;;;20.02;42.36;96246.94;10486960;28;20067;-54
2021/12/07 08:52:27;;;;;;;2.97;2.78;;;;;;;20.02;42.38;96252.34;10474702;28;20056;-53
2021/12/07 09:03:26;;;;;;;3.47;2.90;;;;;;;20.01;42.85;96242.66;10459993;28;20049;-55
2021/12/07 09:08:45;;;;;;;2.90;2.60;;;;;;;20.00;42.88;96249.22;10471320;28;20048;-54
2021/12/07 09:14:05;;;;;;;3.30;3.00;;;;;;;19.99;42.94;96247.63;10471633;28;20045;-55
2021/12/07 09:19:25;;;;;;;3.13;2.78;;;;;;;19.98;42.94;96249.53;10483848;28;20716;-55
2021/12/07 09:24:45;;;;;;;3.20;2.90;;;;;;;19.97;42.96;96247.16;10467857;28;20080;-55
2021/12/07 09:30:07;;;;;;;3.40;3.10;;;;;;;19.94;42.98;96254.84;10471498;28;20140;-55
2021/12/07 09:35:27;;;;;;;2.83;2.60;;;;;;;19.94;42.85;96262.16;10468971;28;20064;-55
2021/12/07 09:40:47;;;;;;;3.33;2.97;;;;;;;19.93;42.94;96253.28;10468440;28;20117;-54
2021/12/07 09:46:09;;;;;;;3.30;3.00;;;;;;;19.93;42.91;96257.88;10483571;28;20074;-55
2021/12/07 09:51:29;;;;;;;3.10;2.80;;;;;;;19.90;42.75;96253.94;10480348;28;20040;-54
2021/12/07 09:56:48;;;;;;;3.17;2.88;;;;;;;19.89;42.98;96257.75;10468709;28;20044;-55
2021/12/07 10:02:08;;;;;;;3.53;2.92;;;;;;;19.88;42.83;96253.50;10477711;28;20074;-55
2021/12/07 10:07:28;;;;;;;5.43;3.20;;;;;;;19.88;42.93;96252.72;10485205;28;20048;-55
2021/12/07 10:12:47;;;;;;;5.45;2.95;;;;;;;19.85;42.66;96251.44;10456136;28;20133;-54
2021/12/07 10:18:10;;;;;;;3.55;2.90;;;;;;;19.84;42.36;96244.50;10453869;28;20048;-54
2021/12/07 10:23:29;;;;;;;3.20;2.90;;;;;;;19.83;42.35;96244.81;10465155;28;20725;-53
2021/12/07 10:28:50;;;;;;;3.28;2.97;;;;;;;19.81;42.24;96239.75;10486185;28;20048;-54
2021/12/07 10:34:16;;;;;;;4.43;2.90;;;;;;;19.79;42.27;96238.53;10499972;28;20040;-53
2021/12/07 10:39:51;;;;;;;3.45;3.03;;;;;;;19.78;42.74;96243.16;10489079;28;20127;-55
2021/12/07 10:45:10;;;;;;;6.13;2.72;;;;;;;19.77;42.73;96244.25;10456436;28;20075;-55
2021/12/07 10:50:29;;;;;;;4.75;2.60;;;;;;;19.76;42.85;96240.00;10471916;28;20049;-55
2021/12/07 10:55:49;;;;;;;2.90;2.58;;;;;;;19.74;42.65;96236.84;10475435;28;20041;-56
2021/12/07 11:01:08;;;;;;;3.50;3.17;;;;;;;19.72;42.58;96233.69;10470739;28;20041;-55
2021/12/07 11:06:28;;;;;;;4.32;2.95;;;;;;;19.71;42.42;96232.88;10485796;28;20052;-55
2021/12/07 11:12:05;;;;;;;4.93;3.58;;;;;;;19.70;42.30;96233.22;10463285;28;20053;-54
2021/12/07 11:17:33;;;;;;;4.05;3.40;;;;;;;19.68;42.44;96238.13;10454699;28;20029;-55
2021/12/07 11:23:05;;;;;;;3.73;3.33;;;;;;;19.68;42.35;96230.03;10460787;28;20537;-56
2021/12/07 11:34:05;;;;;;;4.28;3.88;;;;;;;19.63;42.04;96228.34;10453877;28;20068;-56
2021/12/07 11:39:29;;;;;;;10.32;9.20;;;;;;;19.59;37.44;96226.69;10466074;28;20923;-55
2021/12/07 11:44:55;;;;;;;6.90;4.93;;;;;;;19.51;40.23;96223.75;10449655;28;20045;-56
2021/12/07 11:50:18;;;;;;;6.53;4.97;;;;;;;19.52;40.49;96221.81;10448435;28;20052;-56
2021/12/07 11:55:40;;;;;;;6.93;4.90;;;;;;;19.54;40.52;96228.47;10470671;28;20041;-55
2021/12/07 12:00:59;;;;;;;6.03;4.63;;;;;;;19.54;40.39;96227.69;10449477;28;20547;-55
2021/12/07 12:06:19;;;;;;;5.70;4.88;;;;;;;19.52;40.49;96224.53;10473580;28;20041;-55
2021/12/07 12:11:50;;;;;;;5.60;5.05;;;;;;;19.51;40.42;96226.44;10451126;28;20052;-56
2021/12/07 12:17:14;;;;;;;5.25;4.75;;;;;;;19.50;40.35;96221.38;10464061;28;20123;-56
2021/12/07 12:22:38;;;;;;;5.55;5.03;;;;;;;19.50;40.28;96222.19;10460931;28;20052;-55
2021/12/07 12:27:58;;;;;;;7.32;5.28;;;;;;;19.48;40.20;96216.34;10457417;28;20056;-55
2021/12/07 12:33:18;;;;;;;5.65;5.00;;;;;;;19.49;40.31;96217.09;10474654;28;20107;-55
2021/12/07 12:38:43;;;;;;;5.57;5.03;;;;;;;19.45;40.25;96219.69;10484384;28;20048;-56
2021/12/07 12:44:10;;;;;;;7.55;4.85;;;;;;;19.43;40.56;96208.44;10483165;28;20040;-54
2021/12/07 12:49:41;;;;;;;13.55;9.13;;;;;;;19.38;37.16;96214.06;10473502;28;20076;-54
2021/12/07 12:55:02;;;;;;;13.48;11.05;;;;;;;19.38;37.16;96214.06;10492740;28;20045;-53
2021/12/07 13:00:23;;;;;;;13.80;6.95;;;;;;;19.38;37.16;96214.06;10479498;28;20893;-54
2021/12/07 13:05:45;;;;;;;12.90;6.25;;;;;;;19.16;38.92;96218.75;10461522;28;20045;-55
2021/12/07 13:11:04;;;;;;;14.32;6.18;;;;;;;19.21;39.22;96219.66;10491963;28;20055;-53
2021/12/07 13:16:24;;;;;;;10.75;5.47;;;;;;;19.23;39.64;96222.81;10511745;28;20033;-53
2021/12/07 13:21:45;;;;;;;13.23;7.25;;;;;;;19.25;41.35;96234.06;10450971;28;20053;-54
2021/12/07 13:27:11;;;;;;;22.08;19.63;;;;;;;18.90;35.39;96231.75;10481958;28;20056;-53
2021/12/07 13:32:30;;;;;;;11.95;9.32;;;;;;;18.90;35.39;96231.75;10450015;28;20045;-53
2021/12/07 13:37:49;;;;;;;17.52;11.98;;;;;;;19.00;39.47;96244.84;10452041;28;20606;-54
2021/12/07 13:43:09;;;;;;;15.77;11.13;;;;;;;19.08;39.70;96249.34;10477957;28;20118;-53
2021/12/07 13:48:29;;;;;;;22.27;15.63;;;;;;;19.12;38.39;96250.25;10469558;28;20130;-54
2021/12/07 13:53:49;;;;;;;11.73;9.50;;;;;;;19.13;39.21;96240.22;10486632;28;20051;-55
2021/12/07 13:59:15;;;;;;;13.13;10.38;;;;;;;19.17;39.72;96247.34;10477192;28;20495;-54
2021/12/07 14:04:35;;;;;;;14.20;10.90;;;;;;;19.23;39.98;96252.50;10471493;28;20687;-54
2021/12/07 14:09:55;;;;;;;12.02;9.95;;;;;;;19.27;40.26;96256.16;10453936;28;20091;-54
2021/12/07 14:15:20;;;;;;;14.30;10.05;;;;;;;19.29;40.47;96249.28;10472114;28;20724;-54
2021/12/07 14:20:42;;;;;;;12.32;9.73;;;;;;;19.33;40.71;96244.00;10454824;28;20060;-53
2021/12/07 14:26:04;;;;;;;11.60;9.00;;;;;;;19.35;40.81;96245.22;10454138;28;20528;-54
2021/12/07 14:31:26;;;;;;;10.43;9.05;;;;;;;19.39;41.04;96252.69;10461565;28;20056;-53
2021/12/07 14:36:48;;;;;;;10.65;8.75;;;;;;;19.42;41.04;96257.38;10452056;28;20056;-54
2021/12/07 14:42:11;;;;;;;10.95;8.98;;;;;;;19.47;41.38;96257.97;10460470;28;20554;-54
2021/12/07 14:47:31;;;;;;;11.68;9.10;;;;;;;19.49;41.42;96247.59;10459030;28;20049;-54
2021/12/07 14:52:50;;;;;;;8.88;7.97;;;;;;;19.53;41.33;96248.50;10465531;28;20067;-54
2021/12/07 14:58:10;;;;;;;8.95;8.02;;;;;;;19.59;41.51;96251.00;10453978;28;20094;-54
2021/12/07 15:03:41;;;;;;;11.05;8.45;;;;;;;19.61;41.61;96248.75;10452794;28;20041;-54
2021/12/07 15:09:05;;;;;;;9.27;8.13;;;;;;;19.65;41.46;96246.94;10450401;28;20059;-54
2021/12/07 15:14:27;;;;;;;9.13;7.78;;;;;;;19.68;41.40;96244.34;10452120;28;20056;-54
2021/12/07 15:19:47;;;;;;;9.80;7.53;;;;;;;-146.19;100.00;65364.44;10464718;28;20041;-55
2021/12/07 15:25:09;;;;;;;9.02;8.10;;;;;;;-146.19;100.00;65364.44;10469935;28;20076;-53
2021/12/07 15:30:28;;;;;;;8.70;7.18;;;;;;;-146.19;100.00;65364.44;10464214;28;20727;-55
2021/12/07 15:35:48;;;;;;;9.57;8.02;;;;;;;19.68;41.40;96244.34;10463026;28;20045;-54
2021/12/07 15:41:07;;;;;;;8.95;7.60;;;;;;;19.86;41.32;96247.63;10463138;28;20048;-54
2021/12/07 15:46:27;;;;;;;8.25;7.20;;;;;;;19.91;41.26;96243.91;10493672;28;20067;-55
2021/12/07 15:51:52;;;;;;;9.23;7.45;;;;;;;19.96;41.45;96243.69;10500649;28;20044;-54
2021/12/07 15:57:11;;;;;;;11.07;7.28;;;;;;;20.01;41.60;96243.44;10457510;28;20047;-55
2021/12/07 16:02:31;;;;;;;10.23;7.07;;;;;;;20.06;41.75;96237.81;10470549;28;20110;-54
2021/12/07 16:07:51;;;;;;;8.75;7.30;;;;;;;20.09;41.92;96242.53;10472796;28;20044;-53
2021/12/07 16:13:15;;;;;;;9.30;7.10;;;;;;;20.14;42.28;96242.28;10451163;28;20528;-56
2021/12/07 16:18:36;;;;;;;8.18;7.05;;;;;;;20.19;42.52;96256.72;10485574;28;20110;-54
2021/12/07 16:23:58;;;;;;;10.27;8.57;;;;;;;20.19;41.75;96252.09;10504005;28;20090;-53
2021/12/07 16:29:19;;;;;;;12.10;9.23;;;;;;;20.24;42.32;96249.16;10479792;28;20060;-54
2021/12/07 16:34:40;;;;;;;12.45;9.38;;;;;;;20.29;42.18;96246.22;10478948;28;20036;-52
2021/12/07 16:40:00;;;;;;;12.27;9.30;;;;;;;20.29;42.18;96246.22;10472176;28;20168;-57
2021/12/07 16:45:23;;;;;;;11.88;10.07;;;;;;;20.37;42.34;96251.84;10452240;28;20048;-58
2021/12/07 16:50:43;;;;;;;14.20;10.05;;;;;;;20.37;42.34;96251.84;10450442;28;20049;-58
2021/12/07 16:56:03;;;;;;;11.27;8.65;;;;;;;-146.19;100.00;65364.44;10456700;28;20052;-58
2021/12/07 17:01:23;;;;;;;11.07;8.82;;;;;;;-146.19;100.00;65364.44;10447762;28;20061;-59
2021/12/07 17:06:44;;;;;;;12.55;9.13;;;;;;;-146.19;100.00;65364.44;10450621;28;20044;-56
2021/12/07 17:12:04;;;;;;;11.65;9.00;;;;;;;-146.19;100.00;65364.44;10456939;28;20037;-59
2021/12/07 17:17:23;;;;;;;10.75;8.20;;;;;;;20.37;42.34;96251.84;10480728;28;20691;-57
2021/12/07 17:22:43;;;;;;;10.32;8.18;;;;;;;-146.19;100.00;65364.44;10452671;28;20560;-57
2021/12/07 17:28:03;;;;;;;11.07;8.70;;;;;;;-146.19;100.00;65364.44;10478493;28;20055;-56
2021/12/07 17:33:22;;;;;;;11.32;8.95;;;;;;;-146.19;100.00;65364.44;10454804;28;20454;-58
2021/12/07 17:38:44;;;;;;;12.02;8.27;;;;;;;-146.19;100.00;65364.44;10446179;28;20049;-56
2021/12/07 17:44:04;;;;;;;9.75;8.05;;;;;;;-146.19;100.00;65364.44;10462180;28;20041;-54
2021/12/07 17:49:25;;;;;;;11.20;8.23;;;;;;;-146.19;100.00;65364.44;10452527;28;20059;-57
2021/12/07 17:54:44;;;;;;;9.60;7.63;;;;;;;-146.19;100.00;65364.44;10484608;28;20480;-56
2021/12/07 18:00:08;;;;;;;10.40;8.10;;;;;;;-146.19;100.00;65364.44;10461877;28;20059;-57
2021/12/07 18:05:32;;;;;;;8.33;7.47;;;;;;;-146.19;100.00;65364.44;10479905;28;20041;-55
2021/12/07 18:10:52;;;;;;;12.50;8.30;;;;;;;-146.19;100.00;65364.44;10454653;28;20079;-54
2021/12/07 18:16:14;;;;;;;8.73;7.70;;;;;;;-146.19;100.00;65364.44;10447401;28;20485;-57
2021/12/07 18:21:33;;;;;;;10.85;7.90;;;;;;;-146.19;100.00;65364.44;10449993;28;20053;-56
2021/12/07 18:26:52;;;;;;;10.20;7.65;;;;;;;-146.19;100.00;65364.44;10457277;28;20071;-56
2021/12/07 18:32:12;;;;;;;8.00;6.97;;;;;;;-146.19;100.00;65364.44;10453842;28;20053;-55
2021/12/07 18:37:32;;;;;;;8.00;6.78;;;;;;;-146.19;100.00;65364.44;10447568;28;20091;-55
2021/12/07 18:42:51;;;;;;;9.45;7.15;;;;;;;-146.19;100.00;65364.44;10444132;28;20048;-55
2021/12/07 18:48:11;;;;;;;9.02;7.57;;;;;;;-146.19;100.00;65364.44;10462562;28;20045;-55
2021/12/07 18:53:32;;;;;;;7.82;7.03;;;;;;;-146.19;100.00;65364.44;10469750;28;20048;-56
2021/12/07 18:58:51;;;;;;;8.27;7.05;;;;;;;-146.19;100.00;65364.44;10456340;28;20056;-58
2021/12/07 19:04:11;;;;;;;10.07;6.93;;;;;;;-146.19;100.00;65364.44;10450928;28;20049;-57
2021/12/07 19:09:31;;;;;;;9.25;7.30;;;;;;;-146.19;100.00;65364.44;10461625;28;20033;-56
2021/12/07 19:14:52;;;;;;;11.95;6.85;;;;;;;20.80;45.36;96207.06;10454636;28;20041;-54
2021/12/07 19:20:14;;;;;;;12.48;7.13;;;;;;;20.80;45.55;96212.47;10463615;28;21312;-57
2021/12/07 19:25:34;;;;;;;8.93;7.07;;;;;;;20.80;45.57;96204.34;10450128;28;20570;-55
2021/12/07 19:30:56;;;;;;;10.27;7.45;;;;;;;20.78;45.80;96207.41;10459500;28;20044;-54
2021/12/07 19:36:15;;;;;;;11.27;7.10;;;;;;;20.79;45.82;96181.09;10459597;28;20528;-51
2021/12/07 19:41:34;;;;;;;10.30;7.03;;;;;;;20.77;46.06;96175.25;10450065;28;20121;-53
2021/12/07 19:46:54;;;;;;;8.32;6.53;;;;;;;20.74;46.06;96191.06;10450341;28;20048;-52
2021/12/07 19:52:13;;;;;;;10.48;6.93;;;;;;;20.74;46.19;96196.47;10455344;28;20052;-52
2021/12/07 19:57:36;;;;;;;9.85;6.70;;;;;;;20.74;46.13;96188.34;10454529;28;20057;-52
2021/12/07 20:02:55;;;;;;;8.80;6.65;;;;;;;20.73;46.19;96175.94;10458198;28;20117;-54
2021/12/07 20:08:15;;;;;;;10.15;6.53;;;;;;;20.74;46.51;96168.63;10446795;28;20476;-54
2021/12/07 20:13:36;;;;;;;12.63;6.75;;;;;;;20.75;46.85;96172.88;10452159;28;20041;-53
2021/12/07 20:18:55;;;;;;;9.73;6.80;;;;;;;20.74;47.26;96182.16;10485542;28;20040;-55
2021/12/07 20:24:14;;;;;;;9.05;6.70;;;;;;;20.74;46.98;96164.00;10453147;28;20049;-56
2021/12/07 20:29:34;;;;;;;9.63;6.88;;;;;;;20.76;46.79;96154.72;10455957;28;20049;-56
2021/12/07 20:34:54;;;;;;;9.55;6.72;;;;;;;20.75;46.41;96153.94;10453083;28;20045;-54
2021/12/07 20:40:17;;;;;;;8.25;6.30;;;;;;;20.73;46.61;96156.22;10458406;28;20056;-55
2021/12/07 20:45:43;;;;;;;9.18;5.90;;;;;;;20.72;46.62;96147.31;10461245;28;20059;-55
2021/12/07 20:51:04;;;;;;;11.32;6.40;;;;;;;20.71;46.84;96139.53;10461488;28;20655;-55
2021/12/07 20:56:24;;;;;;;9.15;6.47;;;;;;;20.69;46.41;96141.78;10449343;28;20574;-53
2021/12/07 21:01:46;;;;;;;7.25;6.20;;;;;;;20.67;46.35;96139.44;10449550;28;20056;-50
2021/12/07 21:07:05;;;;;;;7.88;5.80;;;;;;;20.64;46.33;96148.25;10464414;28;20076;-49
2021/12/07 21:12:26;;;;;;;8.45;6.25;;;;;;;20.62;46.65;96131.59;10452857;28;20104;-54
2021/12/07 21:17:47;;;;;;;7.88;6.22;;;;;;;20.60;46.37;96128.44;10465390;28;20048;-54
2021/12/07 21:23:06;;;;;;;6.90;6.07;;;;;;;20.58;46.50;96111.75;10445364;28;20059;-51
2021/12/07 21:28:26;;;;;;;7.75;6.00;;;;;;;20.58;46.65;96109.03;10483260;28;20047;-54
2021/12/07 21:33:46;;;;;;;7.50;6.13;;;;;;;20.57;46.50;96117.50;10450543;28;20049;-52
2021/12/07 21:39:06;;;;;;;7.85;5.80;;;;;;;20.56;46.44;96127.50;10452656;28;20048;-49
2021/12/07 21:44:26;;;;;;;6.88;5.60;;;;;;;20.55;46.56;96125.94;10481217;28;20048;-49
2021/12/07 21:49:50;;;;;;;8.43;5.68;;;;;;;20.52;46.22;96118.50;10455695;28;20045;-54
2021/12/07 21:55:14;;;;;;;7.65;5.95;;;;;;;20.51;46.21;96115.03;10446955;28;20041;-54
2021/12/07 22:00:35;;;;;;;7.28;5.72;;;;;;;20.52;46.19;96110.41;10442364;28;20056;-54
2021/12/07 22:05:55;;;;;;;6.45;5.82;;;;;;;20.50;45.96;96104.53;10444771;28;20111;-54
2021/12/07 22:11:14;;;;;;;7.43;5.47;;;;;;;20.47;45.96;96103.31;10442189;28;20377;-54
2021/12/07 22:16:35;;;;;;;7.03;5.57;;;;;;;20.48;45.95;96096.00;10479992;28;20045;-54
2021/12/07 22:21:55;;;;;;;7.00;5.38;;;;;;;20.45;45.72;96083.16;10486456;28;20048;-54
2021/12/07 22:27:14;;;;;;;5.75;5.13;;;;;;;20.44;45.55;96076.16;10483226;28;20415;-54
2021/12/07 22:32:34;;;;;;;5.93;5.00;;;;;;;20.42;45.51;96067.63;10491517;28;20059;-54
2021/12/07 22:37:54;;;;;;;7.07;5.30;;;;;;;20.41;45.39;96066.06;10492423;28;20048;-54
2021/12/07 22:43:15;;;;;;;6.53;4.85;;;;;;;20.38;45.24;96058.63;10492763;28;20055;-54
2021/12/07 22:48:34;;;;;;;5.88;4.90;;;;;;;20.37;45.33;96051.66;10492061;28;20055;-54
2021/12/07 22:53:54;;;;;;;6.88;5.47;;;;;;;20.33;45.14;96024.50;10492294;28;20048;-54
2021/12/07 22:59:14;;;;;;;5.68;4.88;;;;;;;20.32;45.14;96023.72;10491915;28;20055;-54
2021/12/07 23:04:33;;;;;;;5.47;4.90;;;;;;;20.30;45.02;96015.16;10491413;28;20051;-54
2021/12/07 23:09:53;;;;;;;5.63;5.05;;;;;;;20.29;45.00;96008.19;10491944;28;20052;-55
2021/12/07 23:15:12;;;;;;;5.68;4.90;;;;;;;20.28;45.11;96008.53;10491732;28;20587;-54
2021/12/07 23:20:32;;;;;;;6.40;4.57;;;;;;;20.27;44.98;95996.94;10484526;28;20059;-54
2021/12/07 23:25:52;;;;;;;7.13;5.00;;;;;;;20.25;45.09;95988.38;10463104;28;20049;-54
2021/12/07 23:31:14;;;;;;;6.03;4.90;;;;;;;20.22;45.17;95978.25;10456198;28;20049;-54
2021/12/07 23:36:33;;;;;;;7.95;5.05;;;;;;;20.22;44.93;95972.84;10492607;28;20040;-54
2021/12/07 23:41:53;;;;;;;6.15;4.90;;;;;;;20.19;44.96;95965.44;10485761;28;20407;-55
2021/12/07 23:47:12;;;;;;;6.60;5.00;;;;;;;20.19;44.78;95964.63;10489756;28;20097;-55
2021/12/07 23:52:32;;;;;;;6.53;5.13;;;;;;;20.14;44.82;95960.28;10483288;28;20032;-54
2021/12/07 23:57:51;;;;;;;5.35;4.68;;;;;;;20.12;44.73;95955.22;10467006;28;20084;-54
